Time;durP1;ratioP1;P1;durP2;ratioP2;P2;SDS_P1;SDS_P2;PMS_P1;PMS_P2;Temp;Humidity;BMP_temperature;BMP_pressure;BME280_temperature;BME280_humidity;BME280_pressure;Samples;Min_cycle;Max_cycle;Signal;HPM_P1;HPM_P2
2023/03/18 00:02:41;;;;;;;3.53;3.23;;;0.40;98.40;0.80;96736.00;;;;5050735;28;21017;-83
2023/03/18 00:05:30;;;;;;;13.40;3.43;;;1.10;99.00;1.10;96723.00;;;;5045880;28;20431;-84
2023/03/18 00:08:19;;;;;;;8.83;4.70;;;0.30;98.90;0.90;96724.00;;;;5040908;28;20535;-84
2023/03/18 00:11:11;;;;;;;5.47;3.70;;;0.50;99.00;1.10;96717.00;;;;5043952;28;20468;-83
2023/03/18 00:14:00;;;;;;;6.23;4.67;;;0.00;98.90;1.10;96724.00;;;;5047828;28;20817;-84
2023/03/18 00:16:49;;;;;;;4.57;4.07;;;0.90;99.30;1.00;96719.00;;;;5047426;28;20427;-85
2023/03/18 00:19:38;;;;;;;5.87;3.83;;;0.20;99.40;0.90;96724.00;;;;5044995;28;20460;-83
2023/03/18 00:22:27;;;;;;;7.83;3.83;;;1.80;99.90;0.70;96715.00;;;;5047649;28;20446;-84
2023/03/18 00:25:15;;;;;;;10.40;3.70;;;-0.60;99.30;0.40;96721.00;;;;5037868;28;20431;-84
2023/03/18 00:28:07;;;;;;;4.23;3.07;;;0.00;99.80;0.30;96711.00;;;;5047653;28;20976;-84
2023/03/18 00:31:01;;;;;;;9.00;4.40;;;-0.80;99.80;0.60;96709.00;;;;5040606;28;20481;-84
2023/03/18 00:33:50;;;;;;;7.93;3.43;;;-0.60;99.90;0.40;96716.00;;;;5045272;28;20423;-85
2023/03/18 00:36:38;;;;;;;6.27;4.27;;;-0.80;99.90;0.90;96710.00;;;;5040652;28;20435;-84
2023/03/18 00:39:30;;;;;;;9.50;4.83;;;0.40;99.90;0.70;96711.00;;;;5044431;28;20455;-84
2023/03/18 00:42:18;;;;;;;4.80;3.90;;;0.80;99.90;0.40;96714.00;;;;5035971;28;20540;-84
2023/03/18 00:45:11;;;;;;;5.67;3.77;;;0.10;99.90;0.10;96705.00;;;;5037720;28;20420;-84
2023/03/18 00:47:59;;;;;;;6.17;4.20;;;-0.20;99.90;0.40;96707.00;;;;5045075;28;20440;-83
2023/03/18 00:50:48;;;;;;;8.13;4.93;;;-0.60;99.90;0.80;96718.00;;;;5043391;28;20485;-85
2023/03/18 00:53:37;;;;;;;4.17;3.37;;;-0.70;99.90;0.70;96712.00;;;;5042025;28;20478;-84
2023/03/18 00:56:29;;;;;;;5.40;4.00;;;-0.10;99.90;0.70;96711.00;;;;5046436;28;20432;-83
2023/03/18 00:59:18;;;;;;;6.13;4.37;;;0.80;99.90;0.70;96704.00;;;;5042855;28;20448;-85
2023/03/18 01:02:08;;;;;;;3.30;3.10;;;0.60;99.90;0.60;96704.00;;;;5042802;28;20816;-84
2023/03/18 01:04:57;;;;;;;4.27;3.47;;;-0.10;99.90;0.40;96702.00;;;;5039755;28;20424;-84
2023/03/18 01:07:46;;;;;;;3.77;2.93;;;-0.70;99.90;0.80;96708.00;;;;5043257;28;20451;-84
2023/03/18 01:10:35;;;;;;;5.90;3.77;;;1.90;99.90;0.90;96703.00;;;;5040701;28;20521;-83
2023/03/18 01:13:24;;;;;;;7.03;4.17;;;-0.10;99.90;1.00;96700.00;;;;5046551;28;20436;-84
2023/03/18 01:16:14;;;;;;;5.90;4.23;;;-0.70;99.90;1.00;96701.00;;;;5039277;28;20946;-84
2023/03/18 01:19:05;;;;;;;7.83;4.77;;;-0.40;99.90;0.80;96695.00;;;;5037550;28;20429;-84
2023/03/18 01:21:54;;;;;;;4.60;3.90;;;-0.50;99.90;0.70;96688.00;;;;5039372;28;20437;-85
2023/03/18 01:24:43;;;;;;;6.00;3.57;;;-0.40;99.90;0.50;96679.00;;;;5041156;28;20424;-84
2023/03/18 01:27:32;;;;;;;4.50;4.10;;;-0.80;99.90;0.50;96688.00;;;;5044068;28;20427;-84
2023/03/18 01:30:22;;;;;;;8.67;3.73;;;-0.20;99.90;0.60;96694.00;;;;5038643;28;20463;-83
2023/03/18 01:33:11;;;;;;;7.00;4.40;;;-0.30;99.90;0.50;96695.00;;;;5044950;28;20442;-84
2023/03/18 01:36:02;;;;;;;5.13;4.17;;;-0.80;99.90;0.20;96682.00;;;;5037284;28;20428;-85
2023/03/18 01:38:51;;;;;;;5.70;4.23;;;-0.80;99.90;0.20;96676.00;;;;5043422;28;20438;-84
2023/03/18 01:41:40;;;;;;;6.67;3.97;;;-1.10;99.90;0.10;96685.00;;;;5039960;28;20429;-84
2023/03/18 01:44:29;;;;;;;5.23;4.20;;;-0.20;99.90;0.50;96680.00;;;;5040270;28;20441;-85
2023/03/18 01:47:20;;;;;;;9.37;4.10;;;-0.90;99.90;0.70;96681.00;;;;5045241;28;20435;-84
2023/03/18 01:50:10;;;;;;;5.27;3.73;;;-0.70;99.90;0.40;96678.00;;;;5038376;28;20474;-84
2023/03/18 01:53:05;;;;;;;6.17;4.20;;;-0.50;99.90;0.10;96676.00;;;;5038447;28;20436;-84
2023/03/18 01:55:56;;;;;;;3.73;3.37;;;-0.80;99.90;0.10;96678.00;;;;5042867;28;20447;-83
2023/03/18 01:58:49;;;;;;;7.23;3.93;;;-0.90;99.90;-0.10;96680.00;;;;5043846;28;20427;-84
2023/03/18 02:01:43;;;;;;;5.73;3.50;;;-1.00;99.90;-0.30;96671.00;;;;5043061;28;20490;-83
2023/03/18 02:04:37;;;;;;;5.13;3.50;;;-0.20;99.90;-0.30;96668.00;;;;5040581;28;21087;-84
2023/03/18 02:07:29;;;;;;;5.90;4.40;;;-0.60;99.90;0.00;96674.00;;;;5039437;28;20498;-83
2023/03/18 02:10:23;;;;;;;5.47;4.13;;;-0.70;99.90;0.40;96690.00;;;;5044009;28;20463;-83
2023/03/18 02:13:14;;;;;;;4.37;3.77;;;-0.60;99.90;0.50;96687.00;;;;5040051;28;20447;-84
2023/03/18 02:16:09;;;;;;;4.47;4.00;;;-0.60;99.90;0.50;96693.00;;;;5042418;28;20439;-83
2023/03/18 02:19:04;;;;;;;4.07;3.23;;;-0.50;99.90;-0.30;96678.00;;;;5040778;28;20429;-85
2023/03/18 02:22:02;;;;;;;6.27;4.80;;;0.50;99.90;-0.50;96677.00;;;;5039492;28;20428;-84
2023/03/18 02:25:04;;;;;;;6.53;3.30;;;-1.30;99.90;-0.50;96678.00;;;;5043282;28;20444;-84
2023/03/18 02:27:59;;;;;;;4.10;3.27;;;-0.80;99.90;-0.20;96684.00;;;;5041137;28;20907;-84
2023/03/18 02:30:52;;;;;;;8.00;4.63;;;-0.80;99.90;-0.50;96682.00;;;;5040885;28;20474;-84
2023/03/18 02:33:42;;;;;;;4.37;3.70;;;-1.40;99.90;-0.90;96677.00;;;;5048165;28;20421;-84
2023/03/18 02:36:33;;;;;;;7.27;3.60;;;0.60;99.90;-0.70;96676.00;;;;5035875;28;20435;-84
2023/03/18 02:39:22;;;;;;;4.27;3.00;;;-1.70;99.90;-0.40;96677.00;;;;5044293;28;20458;-84
2023/03/18 02:42:13;;;;;;;3.17;2.93;;;-0.80;99.90;-0.40;96672.00;;;;5046282;28;20451;-84
2023/03/18 02:45:03;;;;;;;9.37;2.73;;;-0.60;99.90;-0.60;96673.00;;;;5043210;28;20742;-84
2023/03/18 02:47:54;;;;;;;4.27;3.20;;;-1.10;99.90;-0.70;96670.00;;;;5042650;28;20839;-83
2023/03/18 02:50:44;;;;;;;3.53;3.23;;;-1.20;99.90;-1.00;96668.00;;;;5038297;28;20972;-83
2023/03/18 02:53:33;;;;;;;4.70;3.13;;;-1.00;99.90;-0.80;96677.00;;;;5035885;28;20887;-83
2023/03/18 02:56:22;;;;;;;4.70;3.93;;;-1.70;99.90;-0.40;96670.00;;;;5038341;28;20429;-83
2023/03/18 02:59:11;;;;;;;5.17;3.03;;;-1.40;99.90;-0.50;96670.00;;;;5042826;28;20443;-83
2023/03/18 03:02:02;;;;;;;5.73;3.63;;;-0.70;99.90;-0.60;96682.00;;;;5041134;28;20843;-83
2023/03/18 03:04:51;;;;;;;4.43;3.53;;;-1.50;99.90;-0.80;96664.00;;;;5033303;28;20494;-83
2023/03/18 03:07:40;;;;;;;5.87;3.57;;;-1.40;99.90;-0.80;96675.00;;;;5040192;28;21057;-84
2023/03/18 03:10:29;;;;;;;6.17;4.03;;;-1.80;99.90;-0.40;96682.00;;;;5047715;28;21011;-83
2023/03/18 03:13:18;;;;;;;12.73;3.97;;;-1.30;99.90;-0.30;96681.00;;;;5045373;28;20532;-84
2023/03/18 03:16:09;;;;;;;3.93;3.47;;;-1.60;99.90;0.00;96689.00;;;;5041850;28;20455;-84
2023/03/18 03:18:59;;;;;;;4.80;4.27;;;-1.20;99.90;-0.40;96684.00;;;;5043321;28;20437;-84
2023/03/18 03:21:48;;;;;;;4.33;3.43;;;-1.70;99.90;-0.60;96683.00;;;;5040300;28;20964;-84
2023/03/18 03:24:36;;;;;;;6.63;4.27;;;-1.60;99.90;-0.90;96681.00;;;;5045548;28;20777;-84
2023/03/18 03:27:26;;;;;;;4.23;3.67;;;-0.80;99.90;-0.80;96692.00;;;;5042431;28;20489;-83
2023/03/18 03:30:16;;;;;;;6.60;3.57;;;-0.60;99.90;-0.70;96683.00;;;;5044245;28;20439;-84
2023/03/18 03:33:05;;;;;;;4.80;3.73;;;-1.40;99.90;-0.60;96692.00;;;;5040292;28;20789;-84
2023/03/18 03:35:56;;;;;;;4.63;3.27;;;-1.10;99.90;-0.40;96684.00;;;;5042919;28;20428;-84
2023/03/18 03:38:46;;;;;;;7.63;3.60;;;-0.80;99.90;-0.80;96689.00;;;;5045350;28;20419;-82
2023/03/18 03:41:34;;;;;;;11.83;3.80;;;-0.70;99.90;-1.30;96685.00;;;;5049614;28;20447;-83
2023/03/18 03:44:23;;;;;;;6.47;3.83;;;-1.50;99.90;-1.10;96699.00;;;;5045201;28;20440;-84
2023/03/18 03:47:12;;;;;;;3.47;2.77;;;-1.70;99.90;-1.30;96692.00;;;;5043455;28;20423;-84
2023/03/18 03:50:01;;;;;;;4.63;3.23;;;-1.50;99.90;-0.90;96700.00;;;;5039606;28;20463;-83
2023/03/18 03:52:52;;;;;;;8.13;3.87;;;-1.70;99.90;-0.40;96705.00;;;;5042509;28;20476;-83
2023/03/18 03:55:41;;;;;;;6.33;3.50;;;-1.90;99.90;-0.30;96702.00;;;;5045210;28;20453;-83
2023/03/18 03:58:30;;;;;;;5.27;4.00;;;-1.90;99.90;-0.30;96704.00;;;;5042596;28;20455;-83
2023/03/18 04:01:18;;;;;;;9.70;4.47;;;-1.70;99.90;-0.40;96709.00;;;;5038555;28;20451;-84
2023/03/18 04:04:07;;;;;;;4.40;2.97;;;-1.60;99.90;-0.60;96695.00;;;;5049778;28;20485;-84
2023/03/18 04:06:57;;;;;;;6.23;4.03;;;-1.70;99.90;-0.50;96711.00;;;;5044592;28;20466;-83
2023/03/18 04:09:47;;;;;;;5.57;4.20;;;-1.70;99.90;-0.40;96701.00;;;;5041017;28;20455;-83
2023/03/18 04:12:36;;;;;;;7.77;4.33;;;-0.70;99.90;-0.30;96707.00;;;;5050941;22;20459;-68
2023/03/18 04:15:25;;;;;;;6.50;4.07;;;-1.70;99.90;-0.50;96698.00;;;;5095277;28;20449;-68
2023/03/18 04:18:15;;;;;;;5.57;3.07;;;-1.20;99.90;-1.10;96693.00;;;;5096636;28;20426;-69
2023/03/18 04:21:04;;;;;;;4.37;3.90;;;-1.50;99.90;-0.70;96699.00;;;;5106166;28;20963;-68
2023/03/18 04:23:53;;;;;;;7.33;3.67;;;-1.50;99.90;-0.40;96706.00;;;;5105588;28;20473;-68
2023/03/18 04:26:43;;;;;;;11.03;4.13;;;-1.40;99.90;-0.40;96707.00;;;;5106353;28;20428;-69
2023/03/18 04:29:32;;;;;;;4.63;4.17;;;-1.50;99.90;-0.60;96693.00;;;;5106716;28;20467;-69
2023/03/18 04:32:21;;;;;;;5.63;3.23;;;-1.30;99.90;-1.10;96698.00;;;;5104083;28;20464;-68
2023/03/18 04:35:11;;;;;;;7.03;3.50;;;-1.80;99.90;-1.50;96692.00;;;;5105970;28;20440;-69
2023/03/18 04:38:00;;;;;;;5.17;4.17;;;-1.70;99.90;-1.10;96699.00;;;;5099923;28;20440;-68
2023/03/18 04:40:48;;;;;;;11.03;3.83;;;-2.10;99.90;-1.30;96688.00;;;;5101089;28;20437;-68
2023/03/18 04:43:38;;;;;;;3.87;3.53;;;-2.10;99.90;-1.20;96701.00;;;;5102321;28;20421;-68
2023/03/18 04:46:28;;;;;;;6.53;5.17;;;-1.90;99.90;-0.80;96702.00;;;;5105054;28;20455;-68
2023/03/18 04:49:18;;;;;;;5.90;3.90;;;-1.90;99.90;-0.50;96702.00;;;;5102311;28;20417;-68
2023/03/18 04:52:07;;;;;;;6.67;3.50;;;-1.70;99.90;-0.60;96695.00;;;;5099879;28;20512;-68
2023/03/18 04:54:56;;;;;;;5.27;3.93;;;-1.60;99.90;-0.90;96704.00;;;;5097986;28;20804;-68
2023/03/18 04:57:45;;;;;;;4.03;2.97;;;-1.80;99.90;-1.60;96700.00;;;;5095300;28;20461;-69
2023/03/18 05:00:35;;;;;;;5.33;3.60;;;-1.80;99.90;-1.10;96705.00;;;;5104148;27;20449;-68
2023/03/18 05:03:24;;;;;;;5.03;3.37;;;-1.90;99.90;-0.90;96720.00;;;;5106129;28;20433;-69
2023/03/18 05:06:23;;;;;;;7.50;4.20;;;-1.80;99.90;-1.30;96709.00;;;;5091461;28;20459;-69
2023/03/18 05:09:12;;;;;;;5.57;3.50;;;-2.10;99.90;-1.60;96715.00;;;;5090931;28;20449;-68
2023/03/18 05:12:01;;;;;;;4.30;3.33;;;-2.00;99.90;-1.50;96714.00;;;;5102180;28;20795;-68
2023/03/18 05:14:50;;;;;;;6.10;4.77;;;-1.80;99.90;-1.70;96709.00;;;;5096862;28;20561;-69
2023/03/18 05:17:40;;;;;;;6.17;3.03;;;-2.30;99.90;-1.60;96715.00;;;;5110386;28;20437;-68
2023/03/18 05:20:28;;;;;;;5.27;4.77;;;-2.10;99.90;-1.20;96722.00;;;;5098749;28;20437;-68
2023/03/18 05:23:17;;;;;;;7.93;3.67;;;-2.40;99.90;-0.80;96720.00;;;;5096278;28;20502;-68
2023/03/18 05:26:06;;;;;;;8.40;3.50;;;-2.20;99.90;-0.60;96728.00;;;;5104967;28;20436;-68
2023/03/18 05:28:55;;;;;;;7.53;4.40;;;-2.00;99.90;-0.60;96727.00;;;;5097217;28;20414;-68
2023/03/18 05:31:43;;;;;;;7.07;3.47;;;-1.80;99.90;-0.60;96726.00;;;;5088180;28;20449;-68
2023/03/18 05:34:35;;;;;;;4.50;4.03;;;-1.90;99.90;-0.90;96735.00;;;;5099475;28;20427;-68
2023/03/18 05:37:24;;;;;;;7.23;3.90;;;-1.70;99.90;-1.10;96725.00;;;;5091566;28;20433;-68
2023/03/18 05:40:14;;;;;;;2.40;2.20;;;-1.80;99.90;-1.40;96731.00;;;;5096470;28;20445;-68
2023/03/18 05:43:03;;;;;;;9.73;3.83;;;-1.80;99.90;-1.30;96723.00;;;;5096313;28;21052;-68
2023/03/18 05:45:53;;;;;;;7.03;4.10;;;-2.10;99.90;-0.90;96734.00;;;;5092031;28;20428;-69
2023/03/18 05:48:42;;;;;;;6.80;4.37;;;-1.90;99.90;-0.80;96735.00;;;;5106922;28;20842;-68
2023/03/18 05:51:32;;;;;;;7.63;4.27;;;-1.90;99.90;-0.80;96742.00;;;;5105657;28;20453;-68
2023/03/18 05:54:21;;;;;;;4.33;3.40;;;-1.60;99.90;-1.00;96739.00;;;;5104092;28;20456;-69
2023/03/18 05:57:10;;;;;;;4.33;3.17;;;-1.80;99.90;-1.30;96733.00;;;;5092585;28;20942;-69
2023/03/18 05:59:59;;;;;;;7.00;4.47;;;-1.90;99.90;-1.20;96726.00;;;;5099545;28;20437;-68
2023/03/18 06:02:48;;;;;;;6.30;4.23;;;-1.70;99.90;-0.80;96725.00;;;;5098944;28;20445;-68
2023/03/18 06:05:37;;;;;;;4.90;2.97;;;-1.80;99.90;-0.90;96726.00;;;;5097407;28;20429;-69
2023/03/18 06:08:27;;;;;;;4.67;4.17;;;-1.80;99.90;-0.70;96744.00;;;;5099728;28;20422;-68
2023/03/18 06:11:16;;;;;;;4.27;2.80;;;-1.20;99.90;-1.20;96735.00;;;;5104602;28;20553;-68
2023/03/18 06:14:06;;;;;;;4.73;2.77;;;-1.30;99.90;-1.00;96749.00;;;;5105583;28;20465;-70
2023/03/18 06:16:54;;;;;;;4.43;3.43;;;-1.60;99.90;-0.90;96736.00;;;;5107856;28;20482;-69
2023/03/18 06:19:43;;;;;;;6.40;5.53;;;-1.70;99.90;-0.80;96736.00;;;;5101206;28;20417;-68
2023/03/18 06:22:32;;;;;;;5.23;4.20;;;-1.70;99.90;-0.70;96733.00;;;;5099135;28;20472;-69
2023/03/18 06:25:23;;;;;;;4.20;3.73;;;-1.20;99.90;-0.40;96757.00;;;;5105140;28;20429;-70
2023/03/18 06:28:11;;;;;;;6.03;4.77;;;-1.40;99.90;-0.40;96751.00;;;;5107894;28;20832;-69
2023/03/18 06:31:01;;;;;;;6.83;6.23;;;-0.70;99.90;-0.20;96743.00;;;;5102196;28;20449;-68
2023/03/18 06:33:50;;;;;;;7.10;6.40;;;-1.00;99.90;0.00;96757.00;;;;5098233;28;20816;-69
2023/03/18 06:36:40;;;;;;;5.20;4.30;;;-0.70;99.90;0.30;96758.00;;;;5104908;28;20428;-69
2023/03/18 06:39:29;;;;;;;3.37;2.97;;;-0.70;99.90;0.60;96766.00;;;;5100606;28;20440;-69
2023/03/18 06:42:19;;;;;;;7.27;4.80;;;-0.50;99.90;0.70;96755.00;;;;5101428;28;20975;-70
2023/03/18 06:45:09;;;;;;;5.07;3.70;;;-0.70;99.90;0.70;96769.00;;;;5106151;28;20432;-69
2023/03/18 06:47:59;;;;;;;4.87;4.37;;;-0.30;99.90;0.60;96781.00;;;;5107162;28;21158;-70
2023/03/18 06:50:48;;;;;;;8.63;5.07;;;-0.10;99.90;0.80;96779.00;;;;5109306;28;20448;-69
2023/03/18 06:53:37;;;;;;;9.23;6.63;;;-0.20;99.90;1.00;96776.00;;;;5103294;28;21013;-70
2023/03/18 06:56:26;;;;;;;5.13;4.10;;;0.00;99.90;1.30;96777.00;;;;5107023;28;20448;-70
2023/03/18 06:59:16;;;;;;;7.83;4.73;;;0.10;99.90;1.50;96782.00;;;;5109909;28;20820;-68
2023/03/18 07:02:07;;;;;;;3.97;3.47;;;0.20;99.90;1.50;96784.00;;;;5108508;28;20421;-69
2023/03/18 07:04:56;;;;;;;8.23;4.37;;;0.40;99.90;1.70;96783.00;;;;5110228;28;20419;-69
2023/03/18 07:07:45;;;;;;;8.50;3.70;;;0.50;99.90;1.90;96788.00;;;;5110084;28;20993;-69
2023/03/18 07:10:34;;;;;;;4.43;4.07;;;0.70;99.90;1.90;96790.00;;;;5105626;28;20440;-70
2023/03/18 07:13:23;;;;;;;9.30;5.20;;;0.80;99.90;2.10;96791.00;;;;5104722;28;20468;-70
2023/03/18 07:16:13;;;;;;;6.90;4.33;;;1.00;99.90;2.20;96789.00;;;;5110438;28;20427;-70
2023/03/18 07:19:03;;;;;;;4.63;4.07;;;1.60;99.90;1.80;96804.00;;;;5109172;28;20411;-70
2023/03/18 07:21:51;;;;;;;7.13;4.27;;;1.10;99.90;2.10;96804.00;;;;5108489;28;20854;-68
2023/03/18 07:24:40;;;;;;;6.23;4.40;;;1.30;99.90;2.20;96797.00;;;;5102512;28;20952;-70
2023/03/18 07:27:29;;;;;;;8.43;4.43;;;1.30;99.90;2.60;96794.00;;;;5103799;28;20440;-69
2023/03/18 07:30:20;;;;;;;4.50;3.53;;;1.60;99.90;2.40;96799.00;;;;5106943;28;20453;-70
2023/03/18 07:33:10;;;;;;;5.53;4.23;;;1.50;99.90;2.20;96800.00;;;;5110474;28;20452;-70
2023/03/18 07:35:59;;;;;;;5.40;4.17;;;1.90;99.90;2.20;96810.00;;;;5100509;28;20432;-70
2023/03/18 07:38:47;;;;;;;4.87;4.20;;;2.10;99.90;2.30;96812.00;;;;5103592;28;20810;-69
2023/03/18 07:41:37;;;;;;;7.20;4.60;;;1.80;99.90;2.70;96821.00;;;;5105580;28;20450;-68
2023/03/18 07:44:29;;;;;;;9.77;5.23;;;1.90;99.90;2.90;96811.00;;;;5102003;28;20421;-70
2023/03/18 07:47:19;;;;;;;9.20;4.53;;;1.70;99.90;3.50;96822.00;;;;5090471;28;20494;-69
2023/03/18 07:50:12;;;;;;;10.10;5.53;;;2.20;99.90;4.00;96817.00;;;;5104332;28;20443;-70
2023/03/18 07:53:01;;;;;;;7.83;5.87;;;2.30;99.90;4.20;96819.00;;;;5105042;28;20468;-70
2023/03/18 07:55:49;;;;;;;7.57;5.67;;;2.40;99.90;4.70;96831.00;;;;5107520;28;20786;-70
2023/03/18 07:58:38;;;;;;;9.90;6.10;;;2.80;99.90;4.60;96819.00;;;;5105812;28;20458;-71
2023/03/18 08:01:27;;;;;;;11.73;5.67;;;3.30;99.90;5.20;96834.00;;;;5108171;27;20468;-70
2023/03/18 08:04:16;;;;;;;8.73;6.20;;;3.30;99.90;5.40;96826.00;;;;5100604;28;20827;-73
2023/03/18 08:07:07;;;;;;;6.63;4.87;;;3.70;99.90;5.90;96833.00;;;;5100409;28;20417;-72
2023/03/18 08:09:56;;;;;;;9.73;6.37;;;3.90;99.90;6.60;96840.00;;;;5107333;28;20472;-73
2023/03/18 08:12:44;;;;;;;9.23;5.67;;;4.30;99.90;6.90;96849.00;;;;5102658;28;20420;-73
2023/03/18 08:15:41;;;;;;;6.70;5.37;;;4.90;99.90;7.00;96839.00;;;;5099582;28;20276;-73
2023/03/18 08:18:30;;;;;;;9.87;5.70;;;5.00;99.90;7.40;96846.00;;;;5107038;28;20209;-72
2023/03/18 08:21:19;;;;;;;10.93;6.60;;;5.20;99.90;7.60;96851.00;;;;5106034;28;20217;-73
2023/03/18 08:24:09;;;;;;;9.23;4.77;;;5.50;99.90;7.40;96847.00;;;;5098454;28;20546;-73
2023/03/18 08:26:58;;;;;;;13.43;5.67;;;5.70;99.50;7.90;96848.00;;;;5106699;28;20584;-74
2023/03/18 08:29:47;;;;;;;10.23;5.50;;;5.90;98.00;8.50;96852.00;;;;5104460;28;20700;-73
2023/03/18 08:32:36;;;;;;;14.93;5.60;;;6.20;97.90;8.80;96849.00;;;;5105480;28;20191;-73
2023/03/18 08:35:25;;;;;;;6.47;4.97;;;6.70;97.50;8.90;96856.00;;;;5105128;28;20692;-73
2023/03/18 08:38:14;;;;;;;10.20;5.20;;;6.70;97.10;9.00;96859.00;;;;5104670;28;20226;-73
2023/03/18 08:41:05;;;;;;;9.17;5.93;;;7.00;96.10;9.20;96854.00;;;;5106929;28;20230;-73
2023/03/18 08:43:56;;;;;;;6.77;5.00;;;7.20;95.40;9.20;96854.00;;;;5102783;28;20744;-73
2023/03/18 08:46:45;;;;;;;7.67;5.47;;;7.40;94.80;9.50;96856.00;;;;5103798;28;20201;-74
2023/03/18 08:49:33;;;;;;;6.00;5.10;;;7.50;94.30;9.70;96848.00;;;;5109027;28;20223;-73
2023/03/18 08:52:22;;;;;;;6.63;5.27;;;7.60;93.00;9.90;96848.00;;;;5107503;28;20230;-74
2023/03/18 08:55:11;;;;;;;9.47;5.37;;;7.80;92.10;10.20;96845.00;;;;5106301;28;20315;-74
2023/03/18 08:58:03;;;;;;;7.90;6.13;;;8.00;91.50;10.40;96851.00;;;;5099141;27;20198;-73
2023/03/18 09:00:55;;;;;;;9.67;6.60;;;8.30;90.70;10.80;96847.00;;;;5099622;28;20279;-73
2023/03/18 09:03:45;;;;;;;8.03;5.67;;;8.50;89.80;10.90;96855.00;;;;5098259;28;20207;-73
2023/03/18 09:06:35;;;;;;;9.17;5.57;;;8.70;88.30;11.20;96853.00;;;;5108242;28;20202;-74
2023/03/18 09:09:23;;;;;;;6.77;5.13;;;8.90;86.90;11.40;96847.00;;;;5109230;28;20195;-74
2023/03/18 09:12:28;;;;;;;9.97;5.40;;;9.10;87.30;11.80;96851.00;;;;5107054;28;20209;-73
2023/03/18 09:15:21;;;;;;;8.40;5.30;;;9.40;84.10;11.80;96839.00;;;;5101575;28;20223;-74
2023/03/18 09:18:09;;;;;;;7.63;5.37;;;9.60;82.80;12.10;96845.00;;;;5106994;28;20195;-75
2023/03/18 09:21:00;;;;;;;8.33;6.13;;;9.80;81.50;12.10;96849.00;;;;5107715;28;20578;-74
2023/03/18 09:23:49;;;;;;;10.10;6.50;;;10.00;80.30;11.90;96850.00;;;;5102384;28;20207;-72
2023/03/18 09:26:38;;;;;;;5.90;5.30;;;10.00;77.10;11.80;96848.00;;;;5103036;28;20206;-73
2023/03/18 09:29:27;;;;;;;10.10;5.77;;;10.10;76.80;11.70;96854.00;;;;5102948;28;20568;-74
2023/03/18 09:32:17;;;;;;;8.17;5.50;;;10.10;73.80;11.60;96849.00;;;;5101905;28;20202;-73
2023/03/18 09:35:08;;;;;;;9.43;6.10;;;10.20;73.40;11.40;96833.00;;;;5103190;28;20255;-72
2023/03/18 09:38:00;;;;;;;7.90;6.37;;;10.20;72.50;11.30;96832.00;;;;5105662;27;20252;-74
2023/03/18 09:41:02;;;;;;;8.27;5.43;;;10.20;70.80;12.40;96833.00;;;;5102771;28;20214;-73
2023/03/18 09:44:08;;;;;;;7.27;6.10;;;10.40;71.00;11.90;96836.00;;;;5104797;28;20199;-71
2023/03/18 09:47:21;;;;;;;7.23;5.30;;;10.50;69.20;12.30;96830.00;;;;5101912;28;20291;-73
2023/03/18 09:50:27;;;;;;;8.57;6.03;;;10.60;68.80;12.80;96833.00;;;;5106186;28;20214;-74
2023/03/18 09:53:23;;;;;;;10.03;5.40;;;10.70;70.50;12.90;96834.00;;;;5102152;28;20271;-73
2023/03/18 09:56:21;;;;;;;11.53;6.23;;;11.00;69.70;13.70;96828.00;;;;5100236;28;20260;-72
2023/03/18 09:59:20;;;;;;;14.57;7.20;;;11.30;70.20;13.80;96832.00;;;;5104293;28;20203;-74
2023/03/18 10:02:23;;;;;;;9.30;5.73;;;11.60;69.10;13.80;96834.00;;;;5103809;28;20232;-72
2023/03/18 10:05:17;;;;;;;7.23;6.13;;;11.80;67.40;14.60;96840.00;;;;5104259;28;20194;-71
2023/03/18 10:08:19;;;;;;;10.87;6.70;;;12.10;66.70;14.70;96842.00;;;;5106123;28;20194;-73
2023/03/18 10:11:21;;;;;;;13.27;5.97;;;12.20;65.60;14.80;96849.00;;;;5098879;28;20218;-72
2023/03/18 10:14:32;;;;;;;13.77;7.13;;;12.50;64.20;15.40;96861.00;;;;5104781;28;20218;-72
2023/03/18 10:17:31;;;;;;;11.33;6.30;;;12.80;63.50;15.30;96848.00;;;;5109317;28;20206;-73
2023/03/18 10:20:29;;;;;;;8.13;5.90;;;13.00;63.00;15.50;96844.00;;;;5110736;28;20217;-72
2023/03/18 10:23:32;;;;;;;18.50;7.13;;;13.20;62.00;16.10;96841.00;;;;5104297;28;20696;-74
2023/03/18 10:26:28;;;;;;;15.80;6.87;;;13.40;62.20;16.20;96847.00;;;;5102622;28;20730;-72
2023/03/18 10:29:36;;;;;;;9.17;5.70;;;13.70;62.00;15.50;96838.00;;;;5111661;28;20221;-74
2023/03/18 10:32:39;;;;;;;10.27;6.10;;;13.60;90.00;15.70;96847.00;;;;5111245;28;20190;-74
2023/03/18 10:35:44;;;;;;;9.10;6.53;;;13.80;90.20;15.60;96841.00;;;;5106868;28;20222;-73
2023/03/18 10:38:36;;;;;;;12.63;7.53;;;13.60;88.00;16.10;96835.00;;;;5109977;28;20205;-75
2023/03/18 10:41:31;;;;;;;6.47;5.43;;;13.70;88.80;15.00;96838.00;;;;5095950;28;20311;-73
2023/03/18 10:44:26;;;;;;;14.60;7.17;;;13.70;86.40;15.50;96833.00;;;;5108815;28;20199;-72
2023/03/18 10:47:21;;;;;;;9.13;6.47;;;13.90;86.40;16.50;96832.00;;;;5100265;28;20202;-72
2023/03/18 10:50:18;;;;;;;12.77;7.80;;;14.10;86.80;16.90;96828.00;;;;5108726;28;20227;-73
2023/03/18 10:53:16;;;;;;;12.73;6.80;;;14.50;86.00;17.30;96831.00;;;;5106616;28;20260;-74
2023/03/18 10:56:08;;;;;;;11.40;6.47;;;14.70;74.90;16.80;96828.00;;;;5108409;28;20636;-72
2023/03/18 10:58:57;;;;;;;9.03;6.80;;;14.90;55.80;16.60;96826.00;;;;5094465;28;20245;-72
2023/03/18 11:01:54;;;;;;;10.20;6.90;;;15.00;54.90;17.30;96823.00;;;;5111176;28;20229;-75
2023/03/18 11:04:49;;;;;;;9.30;6.63;;;15.10;56.10;17.80;96827.00;;;;5105497;28;20295;-73
2023/03/18 11:07:56;;;;;;;9.83;6.57;;;;;16.60;96827.00;;;;5105386;28;20205;-78
2023/03/18 11:10:46;;;;;;;10.27;7.43;;;15.70;53.00;17.70;96829.00;;;;5106579;28;20222;-72
2023/03/18 11:13:36;;;;;;;9.03;7.00;;;15.80;54.90;15.90;96810.00;;;;5107938;28;20202;-75
2023/03/18 11:16:34;;;;;;;9.47;6.60;;;15.60;52.40;17.80;96820.00;;;;5108047;28;20222;-72
2023/03/18 11:19:30;;;;;;;10.83;7.37;;;15.80;53.20;18.50;96816.00;;;;5100778;28;20205;-72
2023/03/18 11:22:23;;;;;;;11.83;7.60;;;16.00;53.30;18.50;96809.00;;;;5105377;28;20336;-72
2023/03/18 11:25:17;;;;;;;11.30;7.43;;;16.40;52.40;19.20;96820.00;;;;5099664;28;20199;-73
2023/03/18 11:28:19;;;;;;;8.43;6.87;;;16.80;52.30;19.40;96813.00;;;;5108183;28;20565;-73
2023/03/18 11:31:10;;;;;;;13.67;7.83;;;17.00;51.70;20.10;96803.00;;;;5107829;28;20229;-72
2023/03/18 11:34:00;;;;;;;13.53;8.17;;;;;19.80;96808.00;;;;5106352;28;20198;-72
2023/03/18 11:37:03;;;;;;;13.47;7.40;;;;;19.30;96794.00;;;;5110001;28;20213;-73
2023/03/18 11:39:52;;;;;;;9.97;6.23;;;;;20.30;96792.00;;;;5111128;28;20194;-74
2023/03/18 11:42:49;;;;;;;9.40;7.17;;;;;19.70;96787.00;;;;5096496;28;20205;-73
2023/03/18 11:45:49;;;;;;;8.53;7.13;;;;;20.00;96782.00;;;;5106124;28;20573;-75
2023/03/18 11:48:39;;;;;;;9.77;6.97;;;;;18.90;96780.00;;;;5109136;28;20213;-72
2023/03/18 11:51:43;;;;;;;11.70;7.27;;;;;19.60;96772.00;;;;5106190;28;20226;-74
2023/03/18 11:54:54;;;;;;;8.77;7.43;;;;;19.60;96785.00;;;;5106776;28;20195;-73
2023/03/18 11:58:02;;;;;;;12.60;8.93;;;;;20.30;96777.00;;;;5099415;28;20248;-71
2023/03/18 12:00:55;;;;;;;9.53;6.60;;;;;19.00;96761.00;;;;5099624;28;20222;-77
2023/03/18 12:04:09;;;;;;;10.10;7.47;;;;;19.90;96764.00;;;;5105278;28;20207;-74
2023/03/18 12:07:16;;;;;;;10.00;6.67;;;;;20.30;96773.00;;;;5106454;28;20677;-76
2023/03/18 12:10:18;;;;;;;10.20;6.73;;;;;20.50;96770.00;;;;5108634;28;20639;-78
2023/03/18 12:13:24;;;;;;;11.00;7.30;;;;;21.10;96769.00;;;;5103394;28;20584;-77
2023/03/18 12:16:22;;;;;;;12.17;6.77;;;;;21.30;96771.00;;;;5106465;28;20226;-74
2023/03/18 12:19:41;;;;;;;9.80;6.43;;;19.50;51.80;22.70;96771.00;;;;5104890;28;20206;-73
2023/03/18 12:22:53;;;;;;;9.83;7.47;;;19.50;48.80;23.80;96775.00;;;;5098424;28;20210;-74
2023/03/18 12:25:59;;;;;;;10.73;6.93;;;;;21.00;96761.00;;;;5100707;28;20198;-72
2023/03/18 12:29:17;;;;;;;9.00;6.83;;;;;21.00;96777.00;;;;5100925;28;20252;-71
2023/03/18 12:32:20;;;;;;;10.37;6.93;;;20.00;45.60;23.00;96767.00;;;;5107667;28;20199;-67
2023/03/18 12:35:29;;;;;;;13.10;7.53;;;20.20;45.80;21.70;96772.00;;;;5100204;28;20198;-76
2023/03/18 12:38:45;;;;;;;10.80;7.47;;;20.70;45.00;19.50;96767.00;;;;5100726;28;20210;-69
2023/03/18 12:41:44;;;;;;;14.37;7.73;;;19.70;45.00;22.10;96771.00;;;;5094790;28;20253;-72
2023/03/18 12:44:53;;;;;;;8.30;6.60;;;19.70;46.10;19.90;96760.00;;;;5101998;28;20198;-76
2023/03/18 12:47:48;;;;;;;10.50;6.90;;;19.50;45.10;22.80;96769.00;;;;5104797;28;20666;-71
2023/03/18 12:50:42;;;;;;;7.53;6.20;;;19.70;46.50;21.00;96775.00;;;;5101152;28;20233;-73
2023/03/18 12:53:35;;;;;;;12.10;8.67;;;19.90;44.80;22.30;96773.00;;;;5108127;28;20202;-74
2023/03/18 12:56:28;;;;;;;14.90;9.07;;;19.90;44.90;23.10;96776.00;;;;5098460;28;20196;-69